Yuejianhang055 — 055 — position and weather

sailwx.info

Track history (hours):
 
Tides and Currents Weather Stations Pressure Air Temp Water Temp Dewpoint Dewpoint Depression Visibility Wind Speed Wind Dir Waves Ship Positions

Yuejianhang055

Last reported at 2014-Sep-26 04:28 UTC. Time now 2014-Oct-23 06:51 UTC.
Position N 23°02' E 113°21'.
Warning: this ship's position is 27 days out of date.

Length 76 m.

Type: Cargo ship. MMSI: 412474880.

Date/timePositionNaut miles runAvg speedWind from/ knotsBaromVisibWave heightAir tempDewpointWater temp
2014-Sep-26 04:28N 23°02' E 113°21'5 5.6
2014-Sep-26 03:33N 23°05' E 113°26'1 0.6
2014-Sep-26 02:29N 23°05' E 113°27'0 0.1
2014-Sep-26 01:29N 23°05' E 113°27'0 0.1
2014-Sep-26 00:33N 23°06' E 113°27'0 0.0
2014-Sep-25 23:33N 23°06' E 113°27'0 0.0
2014-Sep-25 22:27N 23°06' E 113°27'0 0.1
2014-Sep-25 21:33N 23°06' E 113°26'0 0.0
2014-Sep-25 20:32N 23°06' E 113°26'0 0.1
2014-Sep-25 19:32N 23°06' E 113°26'0 0.0
2014-Sep-25 18:32N 23°06' E 113°26'0 0.0
2014-Sep-25 17:32N 23°06' E 113°26'0 0.0
2014-Sep-25 16:26N 23°06' E 113°26'0 0.0
2014-Sep-25 15:32N 23°06' E 113°26'0 0.0
2014-Sep-25 14:26N 23°06' E 113°26'0 0.1
2014-Sep-25 13:32N 23°06' E 113°26'0 0.1
2014-Sep-25 12:31N 23°06' E 113°27'3 3.1
2014-Sep-25 11:33N 23°06' E 113°23'0 0.2
2014-Sep-25 09:29N 23°07' E 113°23'0 0.0
2014-Sep-25 07:32N 23°07' E 113°23'0 0.3
2014-Sep-25 06:25N 23°06' E 113°23'3 3.5
2014-Sep-25 05:33N 23°05' E 113°26'4 3.8
2014-Sep-25 04:26N 23°02' E 113°22'  
Track history (hours):
 
Tides and Currents Weather Stations Pressure Air Temp Water Temp Dewpoint Dewpoint Depression Visibility Wind Speed Wind Dir Waves Ship Positions

Yuejianhang055

Last reported at 2014-Sep-26 04:28 UTC. Time now 2014-Oct-23 06:51 UTC.
Position N 23°02' E 113°21'.
Warning: this ship's position is 27 days out of date.

Length 76 m.

Type: Cargo ship. MMSI: 412474880.

Date/timePositionNaut miles runAvg speedWind from/ knotsBaromVisibWave heightAir tempDewpointWater temp
2014-Sep-26 04:28N 23°02' E 113°21'5 5.6
2014-Sep-26 03:33N 23°05' E 113°26'1 0.6
2014-Sep-26 02:29N 23°05' E 113°27'0 0.1
2014-Sep-26 01:29N 23°05' E 113°27'0 0.1
2014-Sep-26 00:33N 23°06' E 113°27'0 0.0
2014-Sep-25 23:33N 23°06' E 113°27'0 0.0
2014-Sep-25 22:27N 23°06' E 113°27'0 0.1
2014-Sep-25 21:33N 23°06' E 113°26'0 0.0
2014-Sep-25 20:32N 23°06' E 113°26'0 0.1
2014-Sep-25 19:32N 23°06' E 113°26'0 0.0
2014-Sep-25 18:32N 23°06' E 113°26'0 0.0
2014-Sep-25 17:32N 23°06' E 113°26'0 0.0
2014-Sep-25 16:26N 23°06' E 113°26'0 0.0
2014-Sep-25 15:32N 23°06' E 113°26'0 0.0
2014-Sep-25 14:26N 23°06' E 113°26'0 0.1
2014-Sep-25 13:32N 23°06' E 113°26'0 0.1
2014-Sep-25 12:31N 23°06' E 113°27'3 3.1
2014-Sep-25 11:33N 23°06' E 113°23'0 0.2
2014-Sep-25 09:29N 23°07' E 113°23'0 0.0
2014-Sep-25 07:32N 23°07' E 113°23'0 0.3
2014-Sep-25 06:25N 23°06' E 113°23'3 3.5
2014-Sep-25 05:33N 23°05' E 113°26'4 3.8
2014-Sep-25 04:26N 23°02' E 113°22'  

Dump ship's entire track history